createdAt,value
2023-04-28T00:00:38.251Z,69.93
2023-04-28T00:01:38.251Z,70.23
2023-04-28T00:02:38.268Z,70.64
2023-04-28T00:03:38.354Z,70.88
2023-04-28T00:04:38.320Z,70.88
2023-04-28T00:05:38.279Z,70.57
2023-04-28T00:06:38.220Z,70.47
2023-04-28T00:07:38.170Z,70.57
2023-04-28T00:08:39.332Z,70.47
2023-04-28T00:09:38.245Z,70.57
2023-04-28T00:10:38.168Z,70.98
2023-04-28T00:11:38.121Z,71.39
2023-04-28T00:12:38.222Z,71.59
2023-04-28T00:13:38.098Z,71.70
2023-04-28T00:14:38.098Z,71.70
2023-04-28T00:15:38.073Z,71.73
2023-04-28T00:16:38.196Z,71.94
2023-04-28T00:17:38.158Z,72.45
2023-04-28T00:18:38.074Z,72.86
2023-04-28T00:19:38.034Z,73.06
2023-04-28T00:20:38.036Z,73.57
2023-04-28T00:21:38.088Z,73.78
2023-04-28T00:22:38.031Z,74.11
2023-04-28T00:23:37.987Z,74.32
2023-04-28T00:24:37.986Z,74.84
2023-04-28T00:25:37.983Z,75.45
2023-04-28T00:26:37.949Z,75.76
2023-04-28T00:27:37.968Z,75.96
2023-04-28T00:28:37.948Z,76.06
2023-04-28T00:29:37.922Z,76.17
2023-04-28T00:30:37.988Z,76.27
2023-04-28T00:31:37.975Z,75.96
2023-04-28T00:32:37.940Z,75.55
2023-04-28T00:33:37.878Z,75.24
2023-04-28T00:34:37.867Z,74.94
2023-04-28T00:35:37.861Z,74.84
2023-04-28T00:36:37.931Z,74.84
2023-04-28T00:37:37.877Z,74.84
2023-04-28T00:38:37.881Z,74.73
2023-04-28T00:39:37.808Z,74.84
2023-04-28T00:40:37.807Z,75.04
2023-04-28T00:41:37.805Z,75.45
2023-04-28T00:42:37.815Z,75.86
2023-04-28T00:43:37.779Z,76.37
2023-04-28T00:44:39.281Z,77.09
2023-04-28T00:45:37.850Z,77.64
2023-04-28T00:46:37.789Z,77.94
2023-04-28T00:47:37.789Z,78.05
2023-04-28T00:48:37.784Z,78.25
2023-04-28T00:49:37.700Z,78.35
2023-04-28T00:50:37.695Z,78.45
2023-04-28T00:51:37.694Z,78.76
2023-04-28T00:52:37.701Z,79.17
2023-04-28T00:53:37.676Z,79.68
2023-04-28T00:54:37.680Z,79.99
2023-04-28T00:55:37.677Z,80.44
2023-04-28T00:56:37.641Z,80.74
2023-04-28T00:57:37.619Z,81.05
2023-04-28T00:58:37.616Z,81.36
2023-04-28T00:59:37.584Z,81.67
2023-04-28T01:00:37.630Z,81.87
2023-04-28T01:01:37.659Z,82.08
2023-04-28T01:02:38.630Z,82.18
2023-04-28T01:03:37.743Z,82.28
2023-04-28T01:04:37.731Z,82.49
2023-04-28T01:05:37.526Z,82.90
2023-04-28T01:06:37.566Z,83.31
2023-04-28T01:07:37.525Z,83.61
2023-04-28T01:08:37.531Z,83.92
2023-04-28T01:09:37.498Z,84.12
2023-04-28T01:10:37.483Z,84.44
2023-04-28T01:11:37.472Z,84.58
2023-04-28T01:12:37.494Z,84.68
2023-04-28T01:13:37.447Z,84.68
2023-04-28T01:14:37.466Z,84.88
2023-04-28T01:15:39.376Z,85.09
2023-04-28T01:16:37.456Z,85.30
2023-04-28T01:17:37.478Z,85.39
2023-04-28T01:18:37.395Z,85.50
2023-04-28T01:19:37.380Z,85.50
2023-04-28T01:20:37.363Z,85.39
2023-04-28T01:21:37.346Z,85.39
2023-04-28T01:22:37.344Z,85.39
2023-04-28T01:23:37.370Z,85.50
2023-04-28T01:24:37.319Z,85.71
2023-04-28T01:25:37.298Z,85.91
2023-04-28T01:26:37.295Z,86.11
2023-04-28T01:27:37.283Z,86.32
2023-04-28T01:28:37.279Z,86.52
2023-04-28T01:29:37.289Z,86.73
2023-04-28T01:30:37.254Z,86.83
2023-04-28T01:31:37.374Z,86.93
2023-04-28T01:32:37.360Z,87.04
2023-04-28T01:33:37.920Z,87.24
2023-04-28T01:34:37.242Z,87.34
2023-04-28T01:35:38.345Z,87.55
2023-04-28T01:36:38.653Z,87.65
2023-04-28T01:37:37.178Z,87.55
2023-04-28T01:38:37.160Z,87.79
2023-04-28T01:39:37.318Z,87.79
2023-04-28T01:40:37.159Z,88.00
2023-04-28T01:41:37.129Z,88.21
2023-04-28T01:42:37.130Z,88.31
2023-04-28T01:43:37.507Z,88.51
2023-04-28T01:44:37.092Z,88.72
2023-04-28T01:45:37.107Z,89.03
2023-04-28T01:46:37.221Z,89.23
2023-04-28T01:47:37.907Z,89.43
2023-04-28T01:48:37.038Z,89.54
2023-04-28T01:49:37.300Z,89.75
2023-04-28T01:50:37.017Z,89.95
2023-04-28T01:51:38.543Z,90.05
2023-04-28T01:52:37.038Z,90.16
2023-04-28T01:53:37.013Z,90.26
2023-04-28T01:54:37.580Z,90.36
2023-04-28T01:55:37.003Z,90.56
2023-04-28T01:56:37.274Z,90.67
2023-04-28T01:57:36.950Z,90.77
2023-04-28T01:58:36.929Z,90.77
2023-04-28T01:59:36.960Z,90.77
2023-04-28T02:00:36.927Z,90.77
2023-04-28T02:01:36.921Z,90.77
2023-04-28T02:02:37.070Z,90.87
2023-04-28T02:03:38.112Z,90.87
2023-04-28T02:04:36.902Z,90.87
2023-04-28T02:05:37.891Z,90.77
2023-04-28T02:06:36.958Z,90.87
2023-04-28T02:07:36.841Z,90.87
2023-04-28T02:08:36.851Z,90.77
2023-04-28T02:09:36.817Z,90.77
2023-04-28T02:10:36.922Z,90.77
2023-04-28T02:11:36.819Z,90.77
2023-04-28T02:12:36.775Z,90.77
2023-04-28T02:13:36.818Z,90.87
2023-04-28T02:14:36.754Z,90.87
2023-04-28T02:15:36.830Z,90.97
2023-04-28T02:16:36.750Z,91.08
2023-04-28T02:17:36.936Z,91.18
2023-04-28T02:18:36.714Z,91.18
2023-04-28T02:19:36.719Z,91.38
2023-04-28T02:20:36.717Z,91.49
2023-04-28T02:21:36.684Z,91.63
2023-04-28T02:22:38.160Z,91.80
2023-04-28T02:23:36.660Z,91.94
2023-04-28T02:24:37.473Z,92.00
2023-04-28T02:25:36.639Z,92.04
2023-04-28T02:26:36.706Z,92.14
2023-04-28T02:27:37.391Z,92.25
2023-04-28T02:28:36.642Z,92.31
2023-04-28T02:29:36.802Z,92.31
2023-04-28T02:30:37.552Z,92.31
2023-04-28T02:31:36.622Z,92.31
2023-04-28T02:32:36.938Z,92.31
2023-04-28T02:33:38.535Z,92.41
2023-04-28T02:34:36.525Z,92.41
2023-04-28T02:35:37.996Z,92.41
2023-04-28T02:36:36.780Z,92.51
2023-04-28T02:37:36.967Z,92.51
2023-04-28T02:38:37.945Z,92.51
2023-04-28T02:39:36.472Z,92.61
2023-04-28T02:40:36.458Z,92.61
2023-04-28T02:41:36.460Z,92.72
2023-04-28T02:42:36.476Z,92.72
2023-04-28T02:43:37.378Z,92.82
2023-04-28T02:44:37.878Z,92.93
2023-04-28T02:45:37.003Z,93.02
2023-04-28T02:46:38.396Z,93.02
2023-04-28T02:47:36.442Z,93.02
2023-04-28T02:48:36.395Z,93.13
2023-04-28T02:49:36.367Z,93.23
2023-04-28T02:50:37.312Z,93.33
2023-04-28T02:51:36.360Z,93.44
2023-04-28T02:52:36.332Z,93.54
2023-04-28T02:53:36.328Z,93.64
2023-04-28T02:54:36.399Z,93.74
2023-04-28T02:55:36.309Z,93.74
2023-04-28T02:56:36.290Z,93.85
2023-04-28T02:57:36.288Z,93.95
2023-04-28T02:58:37.712Z,94.01
2023-04-28T02:59:36.244Z,94.11
2023-04-28T03:00:36.272Z,94.11
2023-04-28T03:01:36.298Z,94.11
2023-04-28T03:02:36.317Z,94.21
2023-04-28T03:03:36.402Z,94.21
2023-04-28T03:04:36.266Z,94.21
2023-04-28T03:05:36.562Z,94.11
2023-04-28T03:06:36.212Z,94.11
2023-04-28T03:07:36.585Z,94.11
2023-04-28T03:08:36.864Z,94.11
2023-04-28T03:09:36.139Z,94.21
2023-04-28T03:10:36.139Z,94.21
2023-04-28T03:11:36.140Z,94.32
2023-04-28T03:12:36.108Z,94.32
2023-04-28T03:13:36.102Z,94.42
2023-04-28T03:14:36.090Z,94.52
2023-04-28T03:15:36.106Z,94.52
2023-04-28T03:16:36.179Z,94.62
2023-04-28T03:17:36.110Z,94.62
2023-04-28T03:18:36.057Z,94.73
2023-04-28T03:19:36.053Z,94.73
2023-04-28T03:20:36.038Z,94.73
2023-04-28T03:21:35.999Z,94.78
2023-04-28T03:22:36.018Z,94.78
2023-04-28T03:23:35.979Z,94.68
2023-04-28T03:24:35.987Z,94.68
2023-04-28T03:25:35.969Z,94.68
2023-04-28T03:26:35.939Z,94.68
2023-04-28T03:27:35.978Z,94.68
2023-04-28T03:28:36.121Z,94.68
2023-04-28T03:29:35.919Z,94.68
2023-04-28T03:30:35.933Z,94.58
2023-04-28T03:31:35.946Z,94.58
2023-04-28T03:32:35.911Z,94.58
2023-04-28T03:33:35.866Z,94.58
2023-04-28T03:34:35.867Z,94.58
2023-04-28T03:35:35.852Z,94.48
2023-04-28T03:36:35.874Z,94.48
2023-04-28T03:37:35.842Z,94.48
2023-04-28T03:38:35.804Z,94.48
2023-04-28T03:39:35.799Z,94.48
2023-04-28T03:40:35.808Z,94.48
2023-04-28T03:41:35.777Z,94.43
2023-04-28T03:42:35.788Z,94.43
2023-04-28T03:43:35.759Z,94.43
2023-04-28T03:44:36.785Z,94.43
2023-04-28T03:45:35.883Z,94.43
2023-04-28T03:46:35.721Z,94.43
2023-04-28T03:47:35.722Z,94.54
2023-04-28T03:48:35.986Z,94.54
2023-04-28T03:49:35.728Z,94.54
2023-04-28T03:50:35.682Z,94.54
2023-04-28T03:51:35.729Z,94.43
2023-04-28T03:52:35.665Z,94.43
2023-04-28T03:53:35.668Z,94.43
2023-04-28T03:54:35.662Z,94.43
2023-04-28T03:55:35.654Z,94.43
2023-04-28T03:56:35.621Z,94.43
2023-04-28T03:57:35.625Z,94.43
2023-04-28T03:58:35.599Z,94.43
2023-04-28T03:59:35.584Z,94.43
2023-04-28T04:00:35.595Z,94.43
2023-04-28T04:01:35.571Z,94.43
2023-04-28T04:02:35.691Z,94.43
2023-04-28T04:03:35.715Z,94.43
2023-04-28T04:04:35.826Z,94.43
2023-04-28T04:05:35.539Z,94.43
2023-04-28T04:06:35.607Z,94.43
2023-04-28T04:07:35.501Z,94.33
2023-04-28T04:08:35.627Z,94.33
2023-04-28T04:09:35.479Z,94.33
2023-04-28T04:10:35.492Z,94.23
2023-04-28T04:11:35.472Z,94.23
2023-04-28T04:12:36.265Z,94.23
2023-04-28T04:13:35.434Z,94.12
2023-04-28T04:14:35.459Z,94.02
2023-04-28T04:15:35.474Z,94.02
2023-04-28T04:16:35.442Z,94.02
2023-04-28T04:17:35.431Z,94.02
2023-04-28T04:18:35.392Z,94.02
2023-04-28T04:19:35.378Z,94.02
2023-04-28T04:20:35.356Z,94.02
2023-04-28T04:21:35.341Z,94.02
2023-04-28T04:22:35.365Z,94.02
2023-04-28T04:23:35.324Z,94.02
2023-04-28T04:24:35.299Z,94.02
2023-04-28T04:25:35.307Z,94.02
2023-04-28T04:26:35.892Z,94.12
2023-04-28T04:27:35.267Z,94.12
2023-04-28T04:28:36.250Z,94.12
2023-04-28T04:29:36.224Z,94.12
2023-04-28T04:30:35.236Z,94.08
2023-04-28T04:31:35.651Z,94.12
2023-04-28T04:32:35.265Z,94.08
2023-04-28T04:33:35.210Z,94.08
2023-04-28T04:34:35.221Z,94.02
2023-04-28T04:35:35.168Z,94.12
2023-04-28T04:36:35.174Z,94.12
2023-04-28T04:37:35.184Z,94.12
2023-04-28T04:38:35.198Z,94.12
2023-04-28T04:39:35.165Z,94.12
2023-04-28T04:40:35.133Z,94.23
2023-04-28T04:41:36.603Z,94.23
2023-04-28T04:42:35.111Z,94.23
2023-04-28T04:43:35.122Z,94.23
2023-04-28T04:44:35.120Z,94.23
2023-04-28T04:45:35.083Z,94.33
2023-04-28T04:46:36.580Z,94.33
2023-04-28T04:47:35.084Z,94.43
2023-04-28T04:48:35.987Z,94.54
2023-04-28T04:49:35.066Z,94.64
2023-04-28T04:50:35.078Z,94.74
2023-04-28T04:51:35.043Z,94.70
2023-04-28T04:52:35.134Z,94.80
2023-04-28T04:53:34.975Z,94.84
2023-04-28T04:54:34.972Z,94.80
2023-04-28T04:55:34.989Z,94.84
2023-04-28T04:56:37.408Z,94.84
2023-04-28T04:57:34.950Z,94.84
2023-04-28T04:58:35.047Z,94.95
2023-04-28T04:59:34.914Z,94.90
2023-04-28T05:00:34.902Z,95.00
2023-04-28T05:01:34.978Z,95.00
2023-04-28T05:02:35.040Z,95.00
2023-04-28T05:03:35.076Z,95.00
2023-04-28T05:04:34.940Z,95.00
2023-04-28T05:05:35.220Z,95.00
2023-04-28T05:06:35.792Z,95.00
2023-04-28T05:07:34.830Z,95.00
2023-04-28T05:08:34.838Z,95.00
2023-04-28T05:09:34.793Z,95.00
2023-04-28T05:10:35.163Z,95.00
2023-04-28T05:11:34.852Z,95.00
2023-04-28T05:12:34.920Z,95.10
2023-04-28T05:13:35.049Z,95.10
2023-04-28T05:14:34.758Z,95.10
2023-04-28T05:15:34.745Z,95.00
2023-04-28T05:16:35.112Z,94.96
2023-04-28T05:17:34.814Z,94.96
2023-04-28T05:18:34.715Z,94.96
2023-04-28T05:19:34.709Z,94.85
2023-04-28T05:20:34.677Z,94.85
2023-04-28T05:21:34.735Z,94.85
2023-04-28T05:22:36.691Z,94.75
2023-04-28T05:23:34.668Z,94.75
2023-04-28T05:24:34.624Z,94.75
2023-04-28T05:25:34.628Z,94.75
2023-04-28T05:26:35.153Z,94.75
2023-04-28T05:27:35.601Z,94.75
2023-04-28T05:28:34.780Z,94.75
2023-04-28T05:29:34.603Z,94.65
2023-04-28T05:30:34.705Z,94.65
2023-04-28T05:31:34.598Z,94.65
2023-04-28T05:32:34.665Z,94.65
2023-04-28T05:33:34.527Z,94.65
2023-04-28T05:34:34.608Z,94.65
2023-04-28T05:35:34.570Z,94.65
2023-04-28T05:36:34.496Z,94.65
2023-04-28T05:37:34.479Z,94.55
2023-04-28T05:38:34.492Z,94.60
2023-04-28T05:39:34.497Z,94.51
2023-04-28T05:40:34.455Z,94.51
2023-04-28T05:41:34.429Z,94.51
2023-04-28T05:42:34.430Z,94.51
2023-04-28T05:43:34.488Z,94.51
2023-04-28T05:44:34.436Z,94.40
2023-04-28T05:45:34.437Z,94.40
2023-04-28T05:46:34.549Z,94.40
2023-04-28T05:47:34.434Z,94.51
2023-04-28T05:48:34.552Z,94.51
2023-04-28T05:49:34.359Z,94.51
2023-04-28T05:50:34.349Z,94.51
2023-04-28T05:51:34.353Z,94.60
2023-04-28T05:52:34.375Z,94.60
2023-04-28T05:53:35.277Z,94.60
2023-04-28T05:54:34.294Z,94.60
2023-04-28T05:55:34.279Z,94.60
2023-04-28T05:56:34.299Z,94.60
2023-04-28T05:57:42.092Z,94.60
2023-04-28T05:58:36.775Z,94.60
2023-04-28T05:59:34.235Z,94.60
2023-04-28T06:00:34.240Z,94.60
2023-04-28T06:01:34.235Z,94.60
2023-04-28T06:02:34.363Z,94.60
2023-04-28T06:03:34.382Z,94.51
2023-04-28T06:04:34.448Z,94.51
2023-04-28T06:05:34.433Z,94.51
2023-04-28T06:06:34.221Z,94.51
2023-04-28T06:07:34.157Z,94.51
2023-04-28T06:08:34.127Z,94.46
2023-04-28T06:09:34.170Z,94.46
2023-04-28T06:10:34.102Z,94.46
2023-04-28T06:11:34.092Z,94.46
2023-04-28T06:12:34.124Z,94.46
2023-04-28T06:13:34.094Z,94.36
2023-04-28T06:14:34.933Z,94.46
2023-04-28T06:15:34.122Z,94.46
2023-04-28T06:16:34.681Z,94.46
2023-04-28T06:17:35.526Z,94.46
2023-04-28T06:18:35.583Z,94.42
2023-04-28T06:19:34.055Z,94.42
2023-04-28T06:20:34.032Z,94.42
2023-04-28T06:21:34.012Z,94.42
2023-04-28T06:22:33.996Z,94.52
2023-04-28T06:23:33.976Z,94.52
2023-04-28T06:24:33.970Z,94.37
2023-04-28T06:25:34.112Z,94.37
2023-04-28T06:26:33.938Z,94.37
2023-04-28T06:27:33.939Z,94.27
2023-04-28T06:28:35.423Z,94.17
2023-04-28T06:29:33.931Z,94.07
2023-04-28T06:30:33.903Z,93.96
2023-04-28T06:31:34.803Z,93.82
2023-04-28T06:32:33.916Z,93.82
2023-04-28T06:33:33.855Z,93.71
2023-04-28T06:34:34.831Z,93.71
2023-04-28T06:35:33.924Z,93.71
2023-04-28T06:36:35.777Z,93.51
2023-04-28T06:37:34.679Z,93.41
2023-04-28T06:38:35.258Z,93.21
2023-04-28T06:39:35.246Z,93.10
2023-04-28T06:40:35.303Z,93.00
2023-04-28T06:41:34.600Z,92.90
2023-04-28T06:42:34.742Z,92.80
2023-04-28T06:43:33.746Z,92.65
2023-04-28T06:44:36.256Z,92.65
2023-04-28T06:45:33.818Z,92.65
2023-04-28T06:46:33.835Z,92.65
2023-04-28T06:47:33.711Z,92.55
2023-04-28T06:48:35.146Z,92.45
2023-04-28T06:49:33.996Z,92.35
2023-04-28T06:50:34.635Z,92.35
2023-04-28T06:51:33.655Z,92.35
2023-04-28T06:52:38.900Z,92.24
2023-04-28T06:53:34.781Z,92.24
2023-04-28T06:54:33.731Z,92.10
2023-04-28T06:55:34.679Z,91.89
2023-04-28T06:56:35.096Z,91.59
2023-04-28T06:57:34.162Z,91.28
2023-04-28T06:58:33.614Z,91.08
2023-04-28T06:59:33.653Z,90.98
2023-04-28T07:00:33.597Z,90.77
2023-04-28T07:01:33.549Z,90.63
2023-04-28T07:02:33.617Z,90.53
2023-04-28T07:03:33.584Z,90.32
2023-04-28T07:04:34.988Z,90.12
2023-04-28T07:05:34.494Z,89.92
2023-04-28T07:06:33.535Z,89.81
2023-04-28T07:07:33.486Z,89.67
2023-04-28T07:08:34.965Z,89.57
2023-04-28T07:09:33.458Z,89.36
2023-04-28T07:10:34.155Z,89.26
2023-04-28T07:11:33.692Z,89.12
2023-04-28T07:12:33.960Z,89.01
2023-04-28T07:13:34.905Z,88.92
2023-04-28T07:14:34.017Z,88.61
2023-04-28T07:15:34.245Z,87.90
2023-04-28T07:16:33.996Z,87.59
2023-04-28T07:17:33.398Z,87.45
2023-04-28T07:18:33.366Z,87.35
2023-04-28T07:19:33.339Z,87.24
2023-04-28T07:20:33.384Z,87.35
2023-04-28T07:21:33.357Z,87.04
2023-04-28T07:22:33.954Z,86.74
2023-04-28T07:23:33.561Z,86.63
2023-04-28T07:24:33.354Z,86.22
2023-04-28T07:25:33.305Z,86.06
2023-04-28T07:26:33.919Z,85.86
2023-04-28T07:27:33.581Z,85.86
2023-04-28T07:28:33.442Z,85.82
2023-04-28T07:29:33.292Z,85.82
2023-04-28T07:30:33.288Z,85.82
2023-04-28T07:31:35.317Z,85.72
2023-04-28T07:32:33.768Z,85.61
2023-04-28T07:33:33.294Z,85.51
2023-04-28T07:34:33.223Z,85.31
2023-04-28T07:35:33.178Z,85.41
2023-04-28T07:36:33.185Z,85.41
2023-04-28T07:37:33.274Z,85.51
2023-04-28T07:38:33.208Z,85.58
2023-04-28T07:39:33.135Z,85.68
2023-04-28T07:40:33.149Z,85.68
2023-04-28T07:41:33.106Z,85.47
2023-04-28T07:42:33.110Z,85.17
2023-04-28T07:43:33.116Z,85.06
2023-04-28T07:44:33.071Z,84.97
2023-04-28T07:45:33.194Z,84.97
2023-04-28T07:46:33.143Z,84.80
2023-04-28T07:47:33.114Z,84.70
2023-04-28T07:48:33.103Z,84.70
2023-04-28T07:49:33.038Z,84.70
2023-04-28T07:50:33.141Z,84.70
2023-04-28T07:51:32.998Z,84.80
2023-04-28T07:52:32.994Z,84.86
2023-04-28T07:53:32.966Z,84.97
2023-04-28T07:54:34.161Z,85.17
2023-04-28T07:55:32.956Z,85.17
2023-04-28T07:56:32.972Z,85.27
2023-04-28T07:57:32.962Z,85.17
2023-04-28T07:58:32.926Z,85.06
2023-04-28T07:59:32.917Z,85.03
2023-04-28T08:00:32.888Z,84.92
2023-04-28T08:01:32.894Z,84.82
2023-04-28T08:02:34.646Z,84.52
2023-04-28T08:03:33.059Z,84.31
2023-04-28T08:04:33.094Z,84.21
2023-04-28T08:05:33.158Z,84.21
2023-04-28T08:06:32.829Z,84.11
2023-04-28T08:07:32.817Z,83.91
2023-04-28T08:08:32.810Z,83.81
2023-04-28T08:09:32.779Z,83.91
2023-04-28T08:10:32.800Z,83.91
2023-04-28T08:11:32.760Z,83.97
2023-04-28T08:12:33.723Z,83.97
2023-04-28T08:13:32.740Z,84.07
2023-04-28T08:14:32.777Z,84.07
2023-04-28T08:15:32.736Z,84.07
2023-04-28T08:16:34.188Z,84.07
2023-04-28T08:17:32.728Z,83.97
2023-04-28T08:18:32.710Z,83.87
2023-04-28T08:19:32.718Z,83.67
2023-04-28T08:20:32.763Z,83.76
2023-04-28T08:21:32.659Z,83.76
2023-04-28T08:22:32.678Z,83.87
2023-04-28T08:23:32.649Z,83.87
2023-04-28T08:24:32.624Z,83.67
2023-04-28T08:25:32.646Z,83.56
2023-04-28T08:26:32.591Z,83.56
2023-04-28T08:27:32.593Z,83.56
2023-04-28T08:28:32.584Z,83.46
2023-04-28T08:29:32.591Z,83.46
2023-04-28T08:30:33.994Z,83.42
2023-04-28T08:31:32.619Z,83.53
2023-04-28T08:32:32.567Z,83.53
2023-04-28T08:33:34.034Z,83.62
2023-04-28T08:34:32.526Z,83.73
2023-04-28T08:35:32.503Z,84.03
2023-04-28T08:36:32.544Z,84.13
2023-04-28T08:37:32.488Z,84.03
2023-04-28T08:38:33.983Z,83.79
2023-04-28T08:39:32.444Z,83.69
2023-04-28T08:40:32.450Z,83.59
2023-04-28T08:41:32.446Z,83.38
2023-04-28T08:42:33.870Z,83.48
2023-04-28T08:43:32.425Z,83.48
2023-04-28T08:44:32.406Z,83.54
2023-04-28T08:45:32.373Z,83.54
2023-04-28T08:46:32.386Z,83.54
2023-04-28T08:47:32.385Z,83.04
2023-04-28T08:48:32.385Z,82.94
2023-04-28T08:49:32.360Z,82.94
2023-04-28T08:50:32.339Z,82.94
2023-04-28T08:51:32.323Z,83.04
2023-04-28T08:52:33.270Z,83.04
2023-04-28T08:53:32.398Z,83.04
2023-04-28T08:54:32.908Z,83.20
2023-04-28T08:55:32.306Z,83.40
2023-04-28T08:56:32.274Z,83.61
2023-04-28T08:57:32.263Z,83.81
2023-04-28T08:58:32.257Z,83.71
2023-04-28T08:59:32.277Z,83.31
2023-04-28T09:00:32.212Z,83.31
2023-04-28T09:01:32.407Z,83.65
2023-04-28T09:02:32.333Z,83.85
2023-04-28T09:03:32.411Z,83.95
2023-04-28T09:04:32.271Z,84.05
2023-04-28T09:05:32.337Z,84.05
2023-04-28T09:06:32.174Z,84.16
2023-04-28T09:07:32.187Z,84.36
2023-04-28T09:08:32.321Z,84.46
2023-04-28T09:09:36.238Z,84.77
2023-04-28T09:10:32.142Z,85.07
2023-04-28T09:11:32.119Z,85.38
2023-04-28T09:12:32.101Z,85.88
2023-04-28T09:13:32.133Z,86.19
2023-04-28T09:14:32.057Z,86.39
2023-04-28T09:15:33.966Z,86.39
2023-04-28T09:16:32.105Z,86.49
2023-04-28T09:17:32.098Z,86.39
2023-04-28T09:18:32.038Z,86.39
2023-04-28T09:19:32.000Z,86.49
2023-04-28T09:20:32.060Z,86.39
2023-04-28T09:21:31.990Z,86.35
2023-04-28T09:22:32.027Z,86.15
2023-04-28T09:23:31.964Z,86.05
2023-04-28T09:24:31.977Z,85.94
2023-04-28T09:25:31.948Z,85.84
2023-04-28T09:26:31.965Z,85.53
2023-04-28T09:27:32.873Z,85.44
2023-04-28T09:28:31.909Z,85.44
2023-04-28T09:29:31.900Z,85.44
2023-04-28T09:30:31.923Z,85.33
2023-04-28T09:31:31.913Z,85.03
2023-04-28T09:32:32.113Z,84.72
2023-04-28T09:33:31.862Z,84.77
2023-04-28T09:34:31.851Z,84.87
2023-04-28T09:35:31.854Z,85.07
2023-04-28T09:36:31.869Z,85.13
2023-04-28T09:37:31.909Z,85.24
2023-04-28T09:38:31.842Z,85.33
2023-04-28T09:39:31.839Z,85.44
2023-04-28T09:40:31.804Z,85.44
2023-04-28T09:41:31.778Z,85.44
2023-04-28T09:42:31.783Z,85.03
2023-04-28T09:43:31.919Z,84.93
2023-04-28T09:44:32.736Z,84.83
2023-04-28T09:45:33.931Z,84.63
2023-04-28T09:46:31.810Z,84.63
2023-04-28T09:47:31.772Z,84.52
2023-04-28T09:48:31.704Z,84.52
2023-04-28T09:49:31.686Z,84.52
2023-04-28T09:50:31.682Z,84.58
2023-04-28T09:51:31.721Z,84.69
2023-04-28T09:52:31.654Z,84.58
2023-04-28T09:53:31.694Z,84.38
2023-04-28T09:54:31.657Z,84.18
2023-04-28T09:55:31.649Z,84.04
2023-04-28T09:56:31.617Z,83.94
2023-04-28T09:57:31.626Z,84.04
2023-04-28T09:58:31.599Z,84.04
2023-04-28T09:59:31.612Z,84.04
2023-04-28T10:00:31.577Z,84.04
2023-04-28T10:01:31.631Z,84.24
2023-04-28T10:02:43.234Z,84.44
2023-04-28T10:03:32.866Z,84.64
2023-04-28T10:04:31.862Z,84.75
2023-04-28T10:05:31.753Z,84.85
2023-04-28T10:06:31.528Z,84.95
2023-04-28T10:07:31.499Z,85.05
2023-04-28T10:08:31.483Z,85.15
2023-04-28T10:09:31.513Z,85.19
2023-04-28T10:10:31.473Z,85.30
2023-04-28T10:11:32.414Z,85.30
2023-04-28T10:12:31.793Z,85.39
2023-04-28T10:13:31.445Z,85.50
2023-04-28T10:14:31.444Z,85.50
2023-04-28T10:15:31.494Z,85.60
2023-04-28T10:16:32.265Z,85.60
2023-04-28T10:17:32.089Z,85.60
2023-04-28T10:18:31.400Z,85.60
2023-04-28T10:19:31.396Z,85.60
2023-04-28T10:20:31.381Z,85.60
2023-04-28T10:21:31.374Z,85.64
2023-04-28T10:22:31.370Z,85.74
2023-04-28T10:23:32.110Z,85.74
2023-04-28T10:24:31.322Z,85.84
2023-04-28T10:25:31.335Z,85.94
2023-04-28T10:26:31.339Z,86.05
2023-04-28T10:27:31.289Z,86.05
2023-04-28T10:28:31.372Z,86.15
2023-04-28T10:29:31.249Z,86.25
2023-04-28T10:30:31.378Z,86.35
2023-04-28T10:31:32.722Z,86.45
2023-04-28T10:32:31.465Z,86.55
2023-04-28T10:33:31.214Z,86.65
2023-04-28T10:34:31.507Z,86.71
2023-04-28T10:35:31.190Z,86.71
2023-04-28T10:36:36.328Z,86.61
2023-04-28T10:37:31.169Z,86.61
2023-04-28T10:38:31.153Z,86.51
2023-04-28T10:39:31.144Z,86.51
2023-04-28T10:40:31.141Z,86.51
2023-04-28T10:41:31.118Z,86.45
2023-04-28T10:42:31.123Z,86.45
2023-04-28T10:43:31.232Z,86.55
2023-04-28T10:44:31.088Z,86.55
2023-04-28T10:45:31.087Z,86.65
2023-04-28T10:46:32.036Z,86.76
2023-04-28T10:47:31.098Z,86.86
2023-04-28T10:48:31.061Z,86.86
2023-04-28T10:49:31.034Z,87.02
2023-04-28T10:50:38.880Z,87.37
2023-04-28T10:51:32.090Z,87.67
2023-04-28T10:52:31.980Z,87.97
2023-04-28T10:53:30.979Z,88.13
2023-04-28T10:54:31.150Z,88.54
2023-04-28T10:55:30.962Z,88.95
2023-04-28T10:56:30.985Z,89.19
2023-04-28T10:57:32.178Z,89.39
2023-04-28T10:58:30.930Z,89.59
2023-04-28T10:59:30.917Z,89.70
2023-04-28T11:00:30.898Z,89.80
2023-04-28T11:01:30.995Z,90.00
2023-04-28T11:02:31.054Z,90.11
2023-04-28T11:03:31.213Z,90.11
2023-04-28T11:04:30.901Z,90.20
2023-04-28T11:05:30.851Z,90.20
2023-04-28T11:06:30.826Z,90.31
2023-04-28T11:07:30.837Z,90.41
2023-04-28T11:08:30.857Z,90.51
2023-04-28T11:09:30.811Z,90.51
2023-04-28T11:10:30.784Z,90.61
2023-04-28T11:11:30.814Z,90.51
2023-04-28T11:12:30.777Z,90.61
2023-04-28T11:13:31.752Z,90.51
2023-04-28T11:14:34.732Z,90.61
2023-04-28T11:15:30.775Z,90.61
2023-04-28T11:16:30.821Z,90.71
2023-04-28T11:17:30.780Z,90.71
2023-04-28T11:18:31.747Z,90.71
2023-04-28T11:19:30.792Z,90.71
2023-04-28T11:20:30.672Z,90.71
2023-04-28T11:21:30.683Z,90.92
2023-04-28T11:22:30.653Z,90.92
2023-04-28T11:23:30.805Z,91.02
2023-04-28T11:24:30.634Z,91.08
2023-04-28T11:25:30.657Z,91.08
2023-04-28T11:26:30.606Z,91.17
2023-04-28T11:27:30.609Z,91.28
2023-04-28T11:28:30.603Z,91.28
2023-04-28T11:29:30.616Z,91.28
2023-04-28T11:30:30.604Z,91.28
2023-04-28T11:31:30.579Z,91.38
2023-04-28T11:32:30.604Z,91.48
2023-04-28T11:33:30.563Z,91.58
2023-04-28T11:34:30.527Z,91.58
2023-04-28T11:35:30.535Z,91.68
2023-04-28T11:36:30.501Z,91.89
2023-04-28T11:37:30.533Z,91.99
2023-04-28T11:38:30.473Z,92.09
2023-04-28T11:39:30.475Z,92.29
2023-04-28T11:40:31.434Z,92.40
2023-04-28T11:41:30.458Z,92.60
2023-04-28T11:42:30.456Z,92.80
2023-04-28T11:43:43.718Z,93.00
2023-04-28T11:44:31.396Z,93.10
2023-04-28T11:45:30.451Z,93.30
2023-04-28T11:46:30.534Z,93.41
2023-04-28T11:47:30.498Z,93.51
2023-04-28T11:48:30.406Z,93.61
2023-04-28T11:49:31.840Z,93.71
2023-04-28T11:50:30.351Z,93.91
2023-04-28T11:51:30.364Z,94.12
2023-04-28T11:52:30.376Z,94.22
2023-04-28T11:53:30.351Z,94.32
2023-04-28T11:54:31.837Z,94.42
2023-04-28T11:55:30.314Z,94.53
2023-04-28T11:56:30.291Z,94.62
2023-04-28T11:57:30.291Z,94.73
2023-04-28T11:58:30.402Z,94.73
2023-04-28T11:59:30.263Z,94.83
2023-04-28T12:00:30.241Z,94.98
2023-04-28T12:01:30.225Z,95.09
2023-04-28T12:02:30.414Z,95.09
2023-04-28T12:03:30.316Z,95.19
2023-04-28T12:04:30.203Z,95.29
2023-04-28T12:05:30.234Z,95.29
2023-04-28T12:06:30.172Z,95.29
2023-04-28T12:07:30.261Z,95.25
2023-04-28T12:08:30.181Z,95.35
2023-04-28T12:09:30.148Z,95.25
2023-04-28T12:10:30.153Z,95.14
2023-04-28T12:11:30.136Z,95.04
2023-04-28T12:12:45.311Z,95.04
2023-04-28T12:13:31.118Z,95.04
2023-04-28T12:14:30.100Z,95.04
2023-04-28T12:15:30.122Z,95.04
2023-04-28T12:16:31.264Z,95.00
2023-04-28T12:17:30.959Z,95.00
2023-04-28T12:18:30.048Z,94.90
2023-04-28T12:19:30.047Z,94.90
2023-04-28T12:20:30.051Z,94.90
2023-04-28T12:21:30.051Z,94.79
2023-04-28T12:22:29.991Z,94.70
2023-04-28T12:23:29.995Z,94.70
2023-04-28T12:24:29.993Z,94.55
2023-04-28T12:25:31.482Z,94.55
2023-04-28T12:26:29.954Z,94.04
2023-04-28T12:27:30.020Z,93.23
2023-04-28T12:28:29.933Z,92.52
2023-04-28T12:29:29.913Z,92.42
2023-04-28T12:30:29.914Z,92.52
2023-04-28T12:31:29.939Z,92.63
2023-04-28T12:32:29.937Z,92.79
2023-04-28T12:33:29.981Z,92.68
2023-04-28T12:34:30.727Z,92.33
2023-04-28T12:35:29.885Z,92.03
2023-04-28T12:36:29.839Z,91.63
2023-04-28T12:37:29.846Z,91.12
2023-04-28T12:38:29.837Z,90.78
2023-04-28T12:39:29.874Z,90.58
2023-04-28T12:40:29.817Z,90.27
2023-04-28T12:41:29.788Z,90.07
2023-04-28T12:42:29.812Z,89.92
2023-04-28T12:43:29.844Z,89.72
2023-04-28T12:44:29.787Z,89.72
2023-04-28T12:45:29.745Z,89.58
2023-04-28T12:46:29.828Z,88.97
2023-04-28T12:47:29.792Z,88.26
2023-04-28T12:48:29.712Z,87.76
2023-04-28T12:49:29.735Z,87.19
2023-04-28T12:50:29.682Z,86.79
2023-04-28T12:51:29.703Z,86.69
2023-04-28T12:52:29.730Z,86.69